Time;durP1;ratioP1;P1;durP2;ratioP2;P2;SDS_P1;SDS_P2;PMS_P1;PMS_P2;Temp;Humidity;BMP_temperature;BMP_pressure;BME280_temperature;BME280_humidity;BME280_pressure;Samples;Min_cycle;Max_cycle;Signal;HPM_P1;HPM_P2
2021/11/24 00:02:08;;;;;;;15.90;10.03;;;;;;;6.58;100.00;102339.81;5133398;27;20242;-67
2021/11/24 00:04:33;;;;;;;17.60;10.87;;;;;;;6.54;100.00;102349.47;5132061;27;20150;-67
2021/11/24 00:06:59;;;;;;;20.43;10.30;;;;;;;6.52;100.00;102348.66;5134404;27;20252;-67
2021/11/24 00:09:25;;;;;;;18.27;10.90;;;;;;;6.46;100.00;102351.41;5137932;27;20162;-67
2021/11/24 00:11:51;;;;;;;18.00;9.83;;;;;;;6.47;100.00;102347.03;5134111;27;20173;-67
2021/11/24 00:14:16;;;;;;;18.37;10.83;;;;;;;6.37;100.00;102352.47;5134720;27;20497;-64
2021/11/24 00:16:42;;;;;;;18.47;11.60;;;;;;;6.37;100.00;102354.25;5151487;27;20174;-68
2021/11/24 00:19:07;;;;;;;18.37;10.20;;;;;;;6.28;100.00;102359.66;5133304;27;20190;-67
2021/11/24 00:21:33;;;;;;;17.57;10.53;;;;;;;6.27;100.00;102363.16;5134570;27;20159;-67
2021/11/24 00:23:58;;;;;;;20.20;11.80;;;;;;;6.18;100.00;102366.81;5133135;27;20264;-66
2021/11/24 00:26:24;;;;;;;17.80;10.47;;;;;;;6.11;100.00;102365.25;5133181;28;20261;-68
2021/11/24 00:28:49;;;;;;;17.10;10.23;;;;;;;5.98;100.00;102369.88;5152360;27;20149;-67
2021/11/24 00:31:15;;;;;;;16.38;8.52;;;;;;;5.92;100.00;102369.16;5104115;27;1199021;-66
2021/11/24 00:33:40;;;;;;;17.90;10.07;;;;;;;5.89;100.00;102374.38;5143500;27;20161;-67
2021/11/24 00:36:06;;;;;;;17.70;11.10;;;;;;;5.80;100.00;102375.44;5135086;27;20158;-67
2021/11/24 00:38:31;;;;;;;16.23;9.40;;;;;;;5.76;100.00;102379.00;5133887;27;20194;-66
2021/11/24 00:40:57;;;;;;;18.77;10.73;;;;;;;5.65;100.00;102386.19;5154595;27;20158;-68
2021/11/24 00:43:22;;;;;;;17.63;9.83;;;;;;;5.54;100.00;102383.78;5149815;27;20172;-65
2021/11/24 00:45:50;;;;;;;18.73;11.20;;;;;;;5.61;100.00;102384.53;5135662;27;20219;-68
2021/11/24 00:48:15;;;;;;;18.57;11.27;;;;;;;5.66;100.00;102382.69;5145229;27;20641;-68
2021/11/24 00:50:41;;;;;;;19.37;12.10;;;;;;;5.63;100.00;102373.19;5137707;27;20407;-68
2021/11/24 00:53:06;;;;;;;16.50;10.70;;;;;;;5.59;100.00;102371.50;5153261;27;20158;-68
2021/11/24 00:55:32;;;;;;;19.07;10.73;;;;;;;5.60;100.00;102373.25;5137489;27;20146;-68
2021/11/24 00:57:58;;;;;;;14.10;9.10;;;;;;;5.53;100.00;102379.47;5133251;27;20178;-68
2021/11/24 01:00:24;;;;;;;19.03;10.03;;;;;;;5.47;100.00;102374.38;5133846;27;20454;-68
2021/11/24 01:02:49;;;;;;;16.37;10.03;;;;;;;5.43;100.00;102380.50;5139093;27;20150;-66
2021/11/24 01:05:16;;;;;;;19.90;10.87;;;;;;;5.45;100.00;102379.63;5141142;27;20167;-67
2021/11/24 01:07:41;;;;;;;16.37;8.00;;;;;;;5.32;100.00;102370.31;5133139;27;20158;-68
2021/11/24 01:10:10;;;;;;;14.33;9.00;;;;;;;5.30;100.00;102374.69;5133301;27;20384;-64
2021/11/24 01:12:36;;;;;;;17.10;9.37;;;;;;;5.20;100.00;102379.19;5140695;27;20185;-68
2021/11/24 01:15:04;;;;;;;14.73;8.83;;;;;;;5.27;100.00;102379.94;5133530;27;20405;-62
2021/11/24 01:17:29;;;;;;;17.60;8.40;;;;;;;5.25;100.00;102382.59;5132713;27;20845;-68
2021/11/24 01:19:54;;;;;;;16.03;8.90;;;;;;;5.29;100.00;102388.63;5142105;27;20455;-67
2021/11/24 01:22:20;;;;;;;15.43;8.20;;;;;;;5.29;100.00;102380.78;5140342;27;20186;-66
2021/11/24 01:24:45;;;;;;;17.00;9.57;;;;;;;5.31;100.00;102385.97;5139791;27;20186;-68
2021/11/24 01:27:11;;;;;;;14.27;8.50;;;;;;;5.23;100.00;102388.72;5133078;27;20165;-68
2021/11/24 01:29:36;;;;;;;15.77;9.27;;;;;;;5.19;100.00;102377.47;5132235;27;20158;-63
2021/11/24 01:32:02;;;;;;;13.93;7.80;;;;;;;5.20;100.00;102380.94;5132609;27;20159;-68
2021/11/24 01:34:28;;;;;;;13.27;7.90;;;;;;;5.20;100.00;102373.13;5132340;27;20288;-68
2021/11/24 01:36:53;;;;;;;11.40;6.10;;;;;;;5.17;100.00;102373.19;5132435;27;20158;-67
2021/11/24 01:39:18;;;;;;;15.43;8.70;;;;;;;5.16;100.00;102377.53;5132596;27;20178;-65
2021/11/24 01:41:44;;;;;;;13.90;7.33;;;;;;;5.14;100.00;102376.72;5133600;27;20639;-67
2021/11/24 01:44:21;;;;;;;13.43;7.80;;;;;;;5.09;100.00;102375.94;5133317;27;20159;-67
2021/11/24 01:46:55;;;;;;;13.70;8.03;;;;;;;5.06;100.00;102385.53;5131545;27;20246;-66
2021/11/24 01:49:22;;;;;;;13.83;8.90;;;;;;;5.01;100.00;102383.88;5132760;27;20442;-67
2021/11/24 01:51:48;;;;;;;15.50;8.43;;;;;;;4.97;100.00;102383.94;5137974;27;20861;-68
2021/11/24 01:54:14;;;;;;;16.90;10.07;;;;;;;4.89;100.00;102388.41;5139765;27;20415;-68
2021/11/24 01:56:40;;;;;;;14.83;8.50;;;;;;;4.85;100.00;102386.78;5132638;27;20896;-64
2021/11/24 01:59:09;;;;;;;16.30;9.07;;;;;;;4.86;100.00;102385.88;5132568;27;20447;-64
2021/11/24 02:01:35;;;;;;;17.03;9.73;;;;;;;4.83;100.00;102384.16;5135103;27;20411;-67
2021/11/24 02:04:00;;;;;;;10.87;5.57;;;;;;;4.88;100.00;102389.31;5141295;27;20412;-65
2021/11/24 02:06:26;;;;;;;14.97;8.60;;;;;;;4.90;100.00;102384.94;5132050;27;20419;-64
2021/11/24 02:08:51;;;;;;;18.60;8.93;;;;;;;4.90;100.00;102388.38;5131903;27;20170;-66
2021/11/24 02:11:18;;;;;;;14.50;6.77;;;;;;;4.88;100.00;102386.69;5152961;27;20166;-67
2021/11/24 02:13:43;;;;;;;16.83;9.67;;;;;;;4.81;100.00;102379.88;5122770;28;20175;-66
2021/11/24 02:16:09;;;;;;;20.10;10.17;;;;;;;4.82;100.00;102381.59;5136753;27;20473;-66
2021/11/24 02:18:34;;;;;;;17.37;9.40;;;;;;;4.78;100.00;102385.16;5132235;27;20246;-67
2021/11/24 02:21:00;;;;;;;14.63;9.63;;;;;;;4.80;100.00;102384.22;5133123;27;20258;-67
2021/11/24 02:23:25;;;;;;;15.67;8.57;;;;;;;4.79;100.00;102385.13;5132151;27;20190;-67
2021/11/24 02:25:51;;;;;;;17.50;9.93;;;;;;;4.77;100.00;102380.81;5131485;28;20638;-65
2021/11/24 02:28:17;;;;;;;14.97;8.17;;;;;;;4.72;100.00;102386.09;5137432;27;20169;-68
2021/11/24 02:30:42;;;;;;;15.37;9.40;;;;;;;4.69;100.00;102380.94;5152209;27;20209;-66
2021/11/24 02:33:08;;;;;;;15.50;9.63;;;;;;;4.61;100.00;102386.28;5135216;27;20468;-67
2021/11/24 02:35:34;;;;;;;15.70;8.53;;;;;;;4.53;100.00;102395.06;5131850;27;20173;-66
2021/11/24 02:38:02;;;;;;;14.67;8.47;;;;;;;4.52;100.00;102389.00;5131547;28;20522;-66
2021/11/24 02:40:32;;;;;;;15.40;9.10;;;;;;;4.51;100.00;102397.69;5131491;28;20162;-64
2021/11/24 02:42:58;;;;;;;14.73;8.20;;;;;;;4.48;100.00;102402.94;5148863;27;20467;-66
2021/11/24 02:45:25;;;;;;;16.97;9.53;;;;;;;4.42;100.00;102403.88;5132073;28;20834;-67
2021/11/24 02:47:51;;;;;;;18.37;10.17;;;;;;;4.38;100.00;102402.22;5140495;27;20399;-66
2021/11/24 02:50:16;;;;;;;15.53;9.00;;;;;;;4.34;100.00;102408.34;5135987;27;20449;-65
2021/11/24 02:52:42;;;;;;;15.27;9.10;;;;;;;4.31;100.00;102412.75;5132109;27;20161;-67
2021/11/24 02:55:07;;;;;;;15.10;9.40;;;;;;;4.25;100.00;102418.03;5132100;28;20713;-64
2021/11/24 02:57:37;;;;;;;14.40;8.20;;;;;;;4.20;100.00;102412.88;5131138;27;20159;-66
2021/11/24 03:00:20;;;;;;;15.97;9.03;;;;;;;4.14;100.00;102420.75;5131669;27;20170;-64
2021/11/24 03:02:47;;;;;;;15.70;9.30;;;;;;;4.13;100.00;102422.50;5133216;27;20419;-67
2021/11/24 03:05:16;;;;;;;13.40;7.47;;;;;;;4.08;100.00;102426.00;5152231;27;20403;-66
2021/11/24 03:07:42;;;;;;;14.20;8.10;;;;;;;4.07;100.00;102430.38;5138630;27;20413;-66
2021/11/24 03:10:09;;;;;;;14.50;8.47;;;;;;;4.08;100.00;102433.81;5132390;27;20391;-67
2021/11/24 03:12:35;;;;;;;17.13;9.23;;;;;;;4.05;100.00;102429.53;5135821;27;20219;-67
2021/11/24 03:15:03;;;;;;;16.47;9.00;;;;;;;4.07;100.00;102442.50;5135335;27;20904;-66
2021/11/24 03:17:29;;;;;;;15.77;9.07;;;;;;;4.17;100.00;102439.78;5134945;27;20416;-67
2021/11/24 03:19:57;;;;;;;15.50;8.67;;;;;;;4.17;100.00;102437.19;5135120;27;20834;-67
2021/11/24 03:22:22;;;;;;;16.43;8.50;;;;;;;4.19;100.00;102447.56;5135132;27;20388;-66
2021/11/24 03:24:54;;;;;;;15.77;8.70;;;;;;;4.25;100.00;102444.03;5135307;27;20438;-67
2021/11/24 03:27:37;;;;;;;14.37;8.50;;;;;;;4.30;100.00;102450.00;5134969;27;20796;-67
2021/11/24 03:30:10;;;;;;;13.20;7.43;;;;;;;4.34;100.00;102456.91;5134304;27;20462;-68
2021/11/24 03:32:35;;;;;;;16.80;8.87;;;;;;;4.27;100.00;102453.53;5136059;27;20411;-66
2021/11/24 03:35:01;;;;;;;14.90;7.80;;;;;;;4.22;100.00;102457.06;5144907;27;20404;-67
2021/11/24 03:37:27;;;;;;;13.00;8.17;;;;;;;4.25;100.00;102467.44;5144889;27;20218;-66
2021/11/24 03:39:53;;;;;;;17.63;8.90;;;;;;;4.18;100.00;102462.31;5134719;27;20447;-67
2021/11/24 03:42:18;;;;;;;13.90;8.20;;;;;;;4.28;100.00;102464.78;5142703;27;20244;-67
2021/11/24 03:44:45;;;;;;;14.47;8.17;;;;;;;4.23;100.00;102464.84;5143715;27;20165;-66
2021/11/24 03:47:10;;;;;;;14.50;8.30;;;;;;;4.21;100.00;102471.81;5135044;27;20155;-67
2021/11/24 03:49:36;;;;;;;15.40;9.37;;;;;;;4.15;100.00;102475.34;5134483;27;20500;-67
2021/11/24 03:52:04;;;;;;;18.07;9.07;;;;;;;4.06;100.00;102483.25;5134882;27;20158;-67
2021/11/24 03:54:30;;;;;;;16.57;9.07;;;;;;;4.05;100.00;102488.47;5152632;27;20162;-67
2021/11/24 03:56:55;;;;;;;13.43;8.80;;;;;;;4.02;100.00;102489.38;5150754;27;20915;-67
2021/11/24 03:59:21;;;;;;;14.33;7.97;;;;;;;4.07;100.00;102484.13;5154734;27;20449;-68
2021/11/24 04:01:47;;;;;;;14.10;8.30;;;;;;;3.99;100.00;102493.75;5138344;27;20516;-67
2021/11/24 04:04:12;;;;;;;17.87;9.07;;;;;;;4.03;100.00;102495.44;5135011;27;20182;-68
2021/11/24 04:06:38;;;;;;;14.93;8.67;;;;;;;4.05;100.00;102501.47;5142459;27;20302;-68
2021/11/24 04:09:04;;;;;;;11.10;7.67;;;;;;;3.92;100.00;102498.16;5134201;27;20166;-68
2021/11/24 04:11:30;;;;;;;15.13;8.23;;;;;;;3.87;100.00;102507.75;5146481;27;20209;-66
2021/11/24 04:13:56;;;;;;;18.53;9.00;;;;;;;3.84;100.00;102510.38;5134279;27;20231;-66
2021/11/24 04:16:21;;;;;;;13.60;8.20;;;;;;;3.81;100.00;102507.81;5133888;27;20819;-68
2021/11/24 04:18:50;;;;;;;13.73;6.83;;;;;;;3.79;100.00;102509.56;5134638;27;20182;-65
2021/11/24 04:21:17;;;;;;;14.67;8.37;;;;;;;3.76;100.00;102515.63;5134216;27;20592;-68
2021/11/24 04:23:42;;;;;;;19.90;8.50;;;;;;;3.75;100.00;102524.31;5114891;27;20564;-68
2021/11/24 04:26:08;;;;;;;12.60;7.07;;;;;;;3.76;100.00;102522.56;5134047;27;20464;-65
2021/11/24 04:28:34;;;;;;;14.20;9.13;;;;;;;3.74;100.00;102524.34;5141222;27;20158;-68
2021/11/24 04:31:02;;;;;;;16.10;9.07;;;;;;;3.71;100.00;102533.03;5150201;27;20217;-68
2021/11/24 04:33:28;;;;;;;19.90;9.60;;;;;;;3.72;100.00;102539.97;5154611;27;20170;-67
2021/11/24 04:35:53;;;;;;;17.97;8.50;;;;;;;3.68;100.00;102543.44;5146971;27;20865;-66
2021/11/24 04:38:19;;;;;;;18.20;8.90;;;;;;;3.66;100.00;102539.16;5133267;27;20201;-67
2021/11/24 04:40:44;;;;;;;17.60;7.93;;;;;;;3.68;100.00;102538.25;5134471;27;20208;-67
2021/11/24 04:43:12;;;;;;;15.20;8.13;;;;;;;3.68;100.00;102545.19;5136420;27;20178;-65
2021/11/24 04:45:38;;;;;;;19.50;10.23;;;;;;;3.61;100.00;102547.81;5147310;27;20155;-67
2021/11/24 04:48:04;;;;;;;16.60;7.93;;;;;;;3.64;100.00;102546.09;5134229;27;20423;-67
2021/11/24 04:50:29;;;;;;;18.30;7.83;;;;;;;3.62;100.00;102546.94;5133881;27;20165;-66
2021/11/24 04:52:55;;;;;;;15.60;8.10;;;;;;;3.60;100.00;102545.25;5133090;27;20652;-66
2021/11/24 04:55:20;;;;;;;23.90;8.40;;;;;;;3.57;100.00;102543.56;5134710;27;20169;-67
2021/11/24 04:57:46;;;;;;;16.50;8.50;;;;;;;3.52;100.00;102545.31;5148555;27;20186;-67
2021/11/24 05:00:17;;;;;;;14.73;8.40;;;;;;;3.52;100.00;102553.09;5149008;27;20165;-67
2021/11/24 05:02:43;;;;;;;15.07;9.20;;;;;;;3.48;100.00;102550.56;5152201;27;20174;-69
2021/11/24 05:05:09;;;;;;;16.70;9.60;;;;;;;3.48;100.00;102547.97;5152512;27;20396;-67
2021/11/24 05:07:35;;;;;;;27.90;7.80;;;;;;;3.51;100.00;102553.13;5154068;27;20394;-67
2021/11/24 05:10:01;;;;;;;12.60;7.43;;;;;;;3.46;100.00;102557.50;5134966;27;20207;-64
2021/11/24 05:12:27;;;;;;;12.97;7.53;;;;;;;3.48;100.00;102566.16;5135597;27;20162;-63
2021/11/24 05:14:53;;;;;;;14.10;7.83;;;;;;;3.52;100.00;102567.84;5134284;27;20405;-65
2021/11/24 05:17:22;;;;;;;14.20;7.10;;;;;;;3.51;100.00;102566.13;5140790;27;20411;-64
2021/11/24 05:19:48;;;;;;;13.20;6.83;;;;;;;3.50;100.00;102565.25;5137644;27;20443;-65
2021/11/24 05:22:16;;;;;;;16.70;8.57;;;;;;;3.49;100.00;102571.34;5143799;27;20401;-67
2021/11/24 05:24:41;;;;;;;16.83;9.30;;;;;;;3.46;100.00;102579.13;5139735;27;20463;-65
2021/11/24 05:27:07;;;;;;;14.37;8.60;;;;;;;3.38;100.00;102590.47;5131978;27;20456;-66
2021/11/24 05:29:33;;;;;;;16.90;9.27;;;;;;;3.37;100.00;102583.53;5133760;27;20181;-65
2021/11/24 05:31:59;;;;;;;16.50;8.70;;;;;;;3.50;100.00;102595.56;5131568;27;20515;-65
2021/11/24 05:34:24;;;;;;;16.30;9.57;;;;;;;3.49;100.00;102586.94;5131924;27;20408;-67
2021/11/24 05:36:50;;;;;;;17.67;8.40;;;;;;;3.51;100.00;102584.31;5132342;27;20162;-66
2021/11/24 05:39:16;;;;;;;16.40;9.60;;;;;;;3.51;100.00;102597.31;5132217;27;20201;-66
2021/11/24 05:41:42;;;;;;;14.90;8.23;;;;;;;3.52;100.00;102594.69;5131959;27;20181;-68
2021/11/24 05:46:47;;;;;;;15.00;8.83;;;;;;;3.57;100.00;102599.84;5128923;27;20411;-68
2021/11/24 05:49:14;;;;;;;14.30;7.03;;;;;;;3.62;100.00;102591.13;5132194;27;20727;-65
2021/11/24 05:51:40;;;;;;;14.03;7.63;;;;;;;3.72;100.00;102585.88;5132097;27;20441;-67
2021/11/24 05:54:05;;;;;;;14.73;7.40;;;;;;;3.73;100.00;102592.78;5130939;27;20491;-64
2021/11/24 05:56:33;;;;;;;15.10;8.70;;;;;;;3.75;100.00;102598.84;5131533;27;20158;-64
2021/11/24 05:58:59;;;;;;;14.97;7.43;;;;;;;3.78;100.00;102599.69;5130838;27;20297;-65
2021/11/24 06:01:25;;;;;;;15.13;8.53;;;;;;;3.80;100.00;102604.88;5131558;27;20861;-64
2021/11/24 06:03:50;;;;;;;16.33;7.70;;;;;;;3.84;100.00;102610.00;5140794;27;20391;-62
2021/11/24 06:06:16;;;;;;;12.40;7.80;;;;;;;3.89;100.00;102613.44;5131436;27;20614;-67
2021/11/24 06:08:41;;;;;;;12.67;7.60;;;;;;;3.89;100.00;102620.38;5131659;27;20165;-67
2021/11/24 06:11:07;;;;;;;13.80;7.80;;;;;;;3.90;100.00;102616.91;5131877;27;20189;-65
2021/11/24 06:13:32;;;;;;;14.63;8.80;;;;;;;3.88;100.00;102622.13;5130703;28;20265;-67
2021/11/24 06:15:58;;;;;;;16.30;7.80;;;;;;;3.90;100.00;102632.50;5137910;27;20174;-67
2021/11/24 06:18:23;;;;;;;14.90;8.03;;;;;;;3.89;100.00;102629.03;5136160;27;20225;-66
2021/11/24 06:20:49;;;;;;;15.53;7.13;;;;;;;3.96;100.00;102626.41;5133594;27;20158;-67
2021/11/24 06:23:14;;;;;;;12.77;7.77;;;;;;;4.00;100.00;102628.94;5121688;27;20189;-68
2021/11/24 06:25:40;;;;;;;12.70;7.07;;;;;;;4.09;100.00;102628.88;5138028;27;20173;-68
2021/11/24 06:28:06;;;;;;;16.03;6.93;;;;;;;4.14;100.00;102634.88;5131955;28;20633;-68
2021/11/24 06:30:32;;;;;;;14.33;8.67;;;;;;;4.21;100.00;102645.22;5132490;27;20584;-69
2021/11/24 06:32:58;;;;;;;15.67;8.80;;;;;;;4.30;100.00;102646.00;5133633;27;20416;-67
2021/11/24 06:35:24;;;;;;;12.23;6.77;;;;;;;4.37;100.00;102649.41;5131530;28;20163;-67
2021/11/24 06:37:49;;;;;;;15.80;7.30;;;;;;;4.48;100.00;102647.56;5133992;27;20169;-68
2021/11/24 06:40:15;;;;;;;13.70;7.40;;;;;;;4.59;100.00;102655.25;5132061;27;20443;-67
2021/11/24 06:42:41;;;;;;;14.53;8.20;;;;;;;4.66;100.00;102652.56;5129162;28;20177;-68
2021/11/24 06:45:07;;;;;;;10.77;6.80;;;;;;;4.80;100.00;102651.53;5130980;27;20412;-68
2021/11/24 06:47:32;;;;;;;11.93;7.27;;;;;;;4.92;100.00;102649.66;5135267;27;20162;-66
2021/11/24 06:49:58;;;;;;;12.43;6.70;;;;;;;5.09;100.00;102651.19;5134675;27;20411;-65
2021/11/24 06:52:24;;;;;;;11.47;6.40;;;;;;;5.22;100.00;102657.97;5133547;27;20158;-65
2021/11/24 06:54:50;;;;;;;15.33;10.20;;;;;;;5.28;100.00;102647.44;5133658;27;20511;-66
2021/11/24 06:57:15;;;;;;;11.80;6.90;;;;;;;5.37;100.00;102651.69;5135048;27;20177;-63
2021/11/24 06:59:41;;;;;;;15.17;7.60;;;;;;;5.37;100.00;102646.47;5135008;27;20443;-67
2021/11/24 07:02:06;;;;;;;15.07;7.47;;;;;;;5.43;100.00;102646.38;5154140;27;20418;-67
2021/11/24 07:04:32;;;;;;;11.20;6.70;;;;;;;5.56;100.00;102653.13;5139606;27;20182;-68
2021/11/24 07:06:58;;;;;;;13.87;6.50;;;;;;;5.60;100.00;102654.81;5135452;27;20166;-68
2021/11/24 07:09:24;;;;;;;10.10;6.20;;;;;;;5.57;100.00;102647.88;5133737;27;20577;-66
2021/11/24 07:11:50;;;;;;;11.13;6.80;;;;;;;5.56;100.00;102648.78;5133908;27;20167;-67
2021/11/24 07:14:16;;;;;;;12.00;6.60;;;;;;;5.61;100.00;102647.84;5121787;27;20420;-66
2021/11/24 07:16:41;;;;;;;13.43;7.70;;;;;;;5.62;100.00;102641.75;5112275;28;20489;-67
2021/11/24 07:19:07;;;;;;;12.47;7.57;;;;;;;5.69;100.00;102638.16;5112964;28;20275;-67
2021/11/24 07:21:33;;;;;;;18.00;8.47;;;;;;;5.85;100.00;102650.94;5124986;27;20242;-68
2021/11/24 07:23:59;;;;;;;15.30;8.20;;;;;;;5.97;100.00;102649.91;5134258;27;20265;-69
2021/11/24 07:26:25;;;;;;;17.53;7.57;;;;;;;5.98;100.00;102656.00;5134394;27;20407;-67
2021/11/24 07:28:51;;;;;;;13.90;7.87;;;;;;;5.96;100.00;102652.53;5116207;27;20171;-67
2021/11/24 07:31:16;;;;;;;12.43;6.60;;;;;;;5.94;100.00;102649.09;5134630;27;20483;-67
2021/11/24 07:33:42;;;;;;;11.83;6.07;;;;;;;5.99;100.00;102660.31;5134264;27;20419;-64
2021/11/24 07:36:08;;;;;;;12.93;6.10;;;;;;;6.02;100.00;102655.03;5134211;27;20606;-68
2021/11/24 07:38:34;;;;;;;10.27;6.03;;;;;;;6.12;100.00;102659.19;5134670;27;20432;-67
2021/11/24 07:40:59;;;;;;;11.47;6.70;;;;;;;6.19;100.00;102653.00;5134342;27;20162;-68
2021/11/24 07:43:25;;;;;;;12.07;6.63;;;;;;;6.30;100.00;102658.91;5134076;27;20291;-69
2021/11/24 07:45:51;;;;;;;10.73;6.70;;;;;;;6.33;100.00;102671.03;5133752;27;20598;-67
2021/11/24 07:48:17;;;;;;;12.73;6.70;;;;;;;6.31;100.00;102658.00;5134527;27;20162;-68
2021/11/24 07:50:43;;;;;;;15.57;7.37;;;;;;;6.38;100.00;102666.59;5134414;27;20392;-67
2021/11/24 07:53:08;;;;;;;15.77;8.30;;;;;;;6.43;100.00;102667.38;5134501;27;20219;-67
2021/11/24 07:55:34;;;;;;;9.73;5.93;;;;;;;6.51;100.00;102664.63;5133146;27;20939;-69
2021/11/24 07:58:00;;;;;;;12.37;7.37;;;;;;;6.56;100.00;102668.00;5133185;27;20227;-67
2021/11/24 08:00:25;;;;;;;11.47;6.27;;;;;;;6.69;100.00;102672.09;5134024;27;20162;-67
2021/11/24 08:02:51;;;;;;;11.43;7.43;;;;;;;6.78;100.00;102671.06;5134347;27;20159;-67
2021/11/24 08:05:16;;;;;;;11.83;7.30;;;;;;;6.88;100.00;102670.84;5133714;27;20170;-68
2021/11/24 08:07:42;;;;;;;13.03;7.90;;;;;;;6.87;100.00;102676.94;5133736;27;20255;-67
2021/11/24 08:10:11;;;;;;;13.63;8.27;;;;;;;6.98;100.00;102675.88;5133852;27;20698;-67
2021/11/24 08:12:38;;;;;;;14.90;9.03;;;;;;;7.05;100.00;102675.72;5134246;27;20435;-67
2021/11/24 08:15:06;;;;;;;14.50;8.07;;;;;;;7.18;100.00;102681.56;5133941;27;20934;-67
2021/11/24 08:17:32;;;;;;;13.10;6.73;;;;;;;7.27;100.00;102676.13;5133341;27;20412;-68
2021/11/24 08:19:57;;;;;;;11.00;6.37;;;;;;;7.32;100.00;102676.03;5133575;27;20447;-66
2021/11/24 08:22:24;;;;;;;11.27;6.83;;;;;;;7.44;100.00;102675.75;5133295;27;20245;-68
2021/11/24 08:24:50;;;;;;;11.90;6.70;;;;;;;7.54;100.00;102669.41;5133685;27;20193;-66
2021/11/24 08:27:16;;;;;;;12.30;6.80;;;;;;;7.59;100.00;102671.94;5133659;27;20400;-65
2021/11/24 08:29:41;;;;;;;11.43;6.23;;;;;;;7.58;100.00;102671.09;5133208;27;20796;-68
2021/11/24 08:32:07;;;;;;;10.00;5.63;;;;;;;7.69;100.00;102668.19;5133176;27;20258;-66
2021/11/24 08:34:33;;;;;;;9.00;5.53;;;;;;;7.75;100.00;102665.44;5133584;27;20198;-68
2021/11/24 08:36:59;;;;;;;10.40;6.23;;;;;;;7.87;100.00;102664.31;5133211;27;20536;-67
2021/11/24 08:39:25;;;;;;;10.60;5.80;;;;;;;8.01;100.00;102663.06;5133471;27;20439;-62
2021/11/24 08:41:51;;;;;;;12.00;5.80;;;;;;;8.11;100.00;102657.59;5133311;27;20155;-77
2021/11/24 08:44:17;;;;;;;10.80;6.60;;;;;;;8.20;100.00;102652.13;5133364;27;20392;-67
2021/11/24 08:46:43;;;;;;;9.47;6.20;;;;;;;8.34;100.00;102647.38;5133570;27;20502;-68
2021/11/24 08:49:08;;;;;;;9.40;5.27;;;;;;;8.47;100.00;102643.56;5135648;27;20185;-67
2021/11/24 08:51:36;;;;;;;8.43;4.87;;;;;;;8.51;100.00;102642.56;5151339;27;20439;-70
2021/11/24 08:54:03;;;;;;;9.67;5.30;;;;;;;8.60;100.00;102641.44;5140446;27;20158;-69
2021/11/24 08:56:30;;;;;;;9.83;5.00;;;;;;;8.72;100.00;102629.78;5153304;27;20405;-63
2021/11/24 08:58:56;;;;;;;13.97;6.10;;;;;;;8.81;100.00;102629.50;5136793;27;20458;-65
2021/11/24 09:01:22;;;;;;;7.80;4.13;;;;;;;8.85;100.00;102628.53;5131742;27;20412;-67
2021/11/24 09:03:47;;;;;;;10.73;5.70;;;;;;;8.98;100.00;102623.78;5132193;27;20249;-68
2021/11/24 09:06:13;;;;;;;7.63;4.33;;;;;;;9.08;100.00;102623.47;5132789;27;20185;-66
2021/11/24 09:08:38;;;;;;;7.33;4.37;;;;;;;9.19;100.00;102623.13;5131217;27;20556;-69
2021/11/24 09:11:04;;;;;;;7.83;4.03;;;;;;;9.39;100.00;102614.66;5128789;27;20824;-66
2021/11/24 09:13:29;;;;;;;6.23;2.70;;;;;;;9.90;100.00;102614.72;5132683;27;20189;-65
2021/11/24 09:15:55;;;;;;;7.30;2.40;;;;;;;10.42;100.00;102612.06;5132767;27;20170;-68
2021/11/24 09:18:20;;;;;;;6.57;3.03;;;;;;;10.59;100.00;102600.97;5131849;27;20190;-66
2021/11/24 09:20:47;;;;;;;5.00;2.13;;;;;;;11.05;86.98;102600.94;5132171;27;20234;-68
2021/11/24 09:23:15;;;;;;;5.37;2.23;;;;;;;11.60;82.31;102606.63;5132395;27;20197;-66
2021/11/24 09:25:49;;;;;;;7.87;3.30;;;;;;;12.32;76.62;102597.47;5132102;27;20918;-65
2021/11/24 09:28:18;;;;;;;6.87;3.10;;;;;;;13.39;75.02;102582.00;5132245;27;20404;-65
2021/11/24 09:30:44;;;;;;;6.57;3.30;;;;;;;13.95;69.73;102580.91;5131822;27;20918;-66
2021/11/24 09:33:09;;;;;;;5.90;3.17;;;;;;;14.49;68.10;102589.56;5132044;27;20475;-66
2021/11/24 09:35:36;;;;;;;5.13;2.37;;;;;;;15.66;64.27;102577.72;5131421;27;20556;-69
2021/11/24 09:38:04;;;;;;;6.23;2.80;;;;;;;16.21;63.82;102578.84;5131448;27;20158;-70
2021/11/24 09:40:31;;;;;;;10.33;3.60;;;;;;;16.90;60.17;102570.13;5131391;27;20423;-65
2021/11/24 09:43:02;;;;;;;11.67;3.20;;;;;;;17.15;56.54;102572.91;5131829;27;20398;-68
2021/11/24 09:45:29;;;;;;;7.20;3.53;;;;;;;17.77;55.46;102575.03;5132005;27;20579;-66
2021/11/24 09:47:58;;;;;;;5.70;2.87;;;;;;;17.34;54.12;102563.72;5131574;27;20388;-64
2021/11/24 09:50:25;;;;;;;6.93;3.50;;;;;;;17.11;56.00;102573.19;5131079;27;20436;-66
2021/11/24 09:52:53;;;;;;;5.80;3.27;;;;;;;16.95;55.21;102575.16;5130845;27;20545;-63
2021/11/24 09:55:21;;;;;;;5.63;3.57;;;;;;;16.29;56.57;102572.13;5131404;27;20464;-67
2021/11/24 09:57:47;;;;;;;10.43;3.40;;;;;;;16.21;57.84;102573.56;5131355;27;20777;-64
2021/11/24 10:00:13;;;;;;;5.90;3.00;;;;;;;16.20;61.29;102569.19;5130936;27;20955;-65
2021/11/24 10:02:38;;;;;;;4.83;2.43;;;;;;;15.87;57.61;102565.00;5131030;27;20393;-64
2021/11/24 10:05:04;;;;;;;7.07;3.10;;;;;;;15.96;61.20;102576.84;5131308;27;20260;-70
2021/11/24 10:07:30;;;;;;;6.57;3.20;;;;;;;16.76;57.01;102572.78;5130075;27;20171;-69
2021/11/24 10:09:55;;;;;;;5.90;3.00;;;;;;;16.97;57.66;102563.47;5130372;27;20791;-69
2021/11/24 10:12:21;;;;;;;6.67;3.13;;;;;;;17.40;56.34;102550.03;5128712;27;20174;-62
2021/11/24 10:14:46;;;;;;;7.03;3.30;;;;;;;17.64;54.15;102551.03;5129824;28;20597;-71
2021/11/24 10:17:25;;;;;;;6.53;3.07;;;;;;;18.11;54.52;102546.09;5131040;28;20201;-71
2021/11/24 10:20:05;;;;;;;14.40;2.87;;;;;;;17.94;53.87;102547.28;5132653;27;20194;-70
2021/11/24 10:22:32;;;;;;;5.17;2.33;;;;;;;18.61;52.53;102541.69;5134996;27;20388;-68
2021/11/24 10:25:19;;;;;;;7.73;2.50;;;;;;;18.74;50.54;102537.19;5134329;27;20472;-71
2021/11/24 10:27:49;;;;;;;16.83;2.60;;;;;;;18.49;50.46;102530.09;5134286;27;20407;-70
2021/11/24 10:30:29;;;;;;;4.63;2.17;;;;;;;18.30;51.23;102531.41;5133532;27;20524;-68
2021/11/24 10:33:16;;;;;;;5.23;2.20;;;;;;;18.14;52.60;102535.28;5137110;27;20794;-69
2021/11/24 10:35:41;;;;;;;5.87;2.77;;;;;;;18.79;51.44;102529.72;5143424;27;20832;-70
2021/11/24 10:38:18;;;;;;;4.83;1.73;;;;;;;18.62;49.62;102514.94;5130704;27;20989;-65
2021/11/24 10:40:46;;;;;;;4.53;2.00;;;;;;;19.06;49.56;102508.22;5133849;27;20169;-70
2021/11/24 10:43:13;;;;;;;4.33;2.20;;;;;;;18.66;51.78;102519.09;5134945;27;20871;-69
2021/11/24 10:45:50;;;;;;;5.90;2.03;;;;;;;18.45;49.73;102513.50;5134193;27;20406;-69
2021/11/24 10:48:28;;;;;;;4.13;1.93;;;;;;;18.46;49.31;102514.34;5133381;27;20399;-61
2021/11/24 10:50:55;;;;;;;5.10;2.10;;;;;;;19.48;46.07;102498.78;5132984;27;20471;-69
2021/11/24 10:53:22;;;;;;;4.17;2.00;;;;;;;18.93;45.56;102492.28;5134308;27;20392;-62
2021/11/24 10:55:47;;;;;;;6.83;1.90;;;;;;;19.13;45.59;102494.31;5133645;27;20410;-62
2021/11/24 10:58:18;;;;;;;5.30;1.87;;;;;;;18.56;45.35;102494.09;5133625;27;20494;-62
2021/11/24 11:00:50;;;;;;;5.33;2.30;;;;;;;19.05;44.52;102491.38;5132899;27;20174;-61
2021/11/24 11:03:15;;;;;;;6.20;1.77;;;;;;;19.71;43.47;102486.38;5133675;27;20420;-62
2021/11/24 11:05:44;;;;;;;16.83;7.20;;;;;;;19.28;44.95;102486.13;5095065;28;20412;-61
2021/11/24 11:08:12;;;;;;;12.50;8.00;;;;;;;18.74;45.78;102489.25;5114060;28;20178;-67
2021/11/24 11:10:40;;;;;;;4.27;1.97;;;;;;;19.19;46.24;102482.31;5113556;28;20923;-68
2021/11/24 11:13:11;;;;;;;5.50;2.00;;;;;;;18.79;46.88;102490.63;5113987;28;20411;-65
2021/11/24 11:15:49;;;;;;;4.90;1.77;;;;;;;18.60;47.77;102492.06;5132997;27;20447;-66
2021/11/24 11:18:26;;;;;;;5.37;1.57;;;;;;;19.77;44.33;102485.91;5134196;27;20404;-67